Time;durP1;ratioP1;P1;durP2;ratioP2;P2;SDS_P1;SDS_P2;PMS_P1;PMS_P2;Temp;Humidity;BMP_temperature;BMP_pressure;BME280_temperature;BME280_humidity;BME280_pressure;Samples;Min_cycle;Max_cycle;Signal;HPM_P1;HPM_P2
2022/08/24 00:02:12;;;;;;;11.73;9.07;;;;;;;18.67;100.00;92915.78;5111305;28;20089;-74
2022/08/24 00:04:39;;;;;;;16.15;10.13;;;;;;;18.64;100.00;92910.31;5111133;28;20487;-74
2022/08/24 00:07:07;;;;;;;16.13;10.02;;;;;;;18.68;100.00;92913.94;5111469;28;20039;-74
2022/08/24 00:09:35;;;;;;;15.07;10.10;;;;;;;18.64;100.00;92913.69;5111263;28;20122;-74
2022/08/24 00:12:02;;;;;;;14.73;10.45;;;;;;;18.60;100.00;92917.09;5111075;28;20043;-72
2022/08/24 00:14:29;;;;;;;15.10;11.20;;;;;;;18.24;100.00;92915.41;5110923;28;20101;-73
2022/08/24 00:16:57;;;;;;;14.90;11.52;;;;;;;18.10;100.00;92910.75;5111217;28;20164;-73
2022/08/24 00:19:24;;;;;;;19.33;13.45;;;;;;;18.08;100.00;92919.84;5110787;28;20051;-73
2022/08/24 00:21:51;;;;;;;17.60;11.93;;;;;;;17.87;100.00;92925.81;5110922;28;20514;-72
2022/08/24 00:24:18;;;;;;;20.90;15.13;;;;;;;17.68;100.00;92922.22;5110979;28;20048;-72
2022/08/24 00:26:46;;;;;;;21.63;15.60;;;;;;;17.71;100.00;92913.91;5110805;28;20495;-73
2022/08/24 00:29:13;;;;;;;21.92;15.15;;;;;;;17.67;100.00;92910.28;5111163;28;20052;-73
2022/08/24 00:31:40;;;;;;;21.52;16.02;;;;;;;17.64;100.00;92916.78;5110621;28;20548;-73
2022/08/24 00:34:08;;;;;;;22.40;15.80;;;;;;;17.60;100.00;92916.50;5110605;28;20104;-73
2022/08/24 00:36:35;;;;;;;25.58;16.73;;;;;;;17.65;100.00;92907.16;5109855;28;20058;-73
2022/08/24 00:39:03;;;;;;;25.55;17.17;;;;;;;17.66;100.00;92919.09;5110818;28;20051;-73
2022/08/24 00:41:30;;;;;;;25.13;17.98;;;;;;;17.63;100.00;92913.38;5110574;28;20048;-73
2022/08/24 00:43:59;;;;;;;25.88;17.83;;;;;;;17.73;100.00;92915.19;5110589;28;20048;-73
2022/08/24 00:46:30;;;;;;;24.85;18.27;;;;;;;17.77;100.00;92913.63;5110770;28;20089;-73
2022/08/24 00:49:02;;;;;;;25.88;17.52;;;;;;;17.74;100.00;92915.97;5110168;28;20387;-73
2022/08/24 00:51:36;;;;;;;25.25;16.90;;;;;;;17.70;100.00;92913.13;5110545;28;20047;-73
2022/08/24 00:54:07;;;;;;;25.92;17.17;;;;;;;17.60;100.00;92913.13;5110234;28;20536;-73
2022/08/24 00:56:37;;;;;;;24.25;17.15;;;;;;;17.54;100.00;92909.75;5110381;28;20065;-73
2022/08/24 00:59:11;;;;;;;23.98;16.75;;;;;;;17.52;100.00;92909.25;5110546;28;20048;-72
2022/08/24 01:01:38;;;;;;;22.23;16.13;;;;;;;17.59;100.00;92912.34;5110231;28;20122;-71
2022/08/24 01:04:09;;;;;;;22.27;15.90;;;;;;;17.62;100.00;92914.44;5110496;28;20120;-71
2022/08/24 01:06:37;;;;;;;22.10;15.00;;;;;;;17.58;100.00;92920.38;5109880;28;20499;-72
2022/08/24 01:09:05;;;;;;;19.63;15.38;;;;;;;17.47;100.00;92919.63;5098066;28;20081;-73
2022/08/24 01:11:32;;;;;;;21.67;14.68;;;;;;;17.53;100.00;92917.81;5107531;28;20044;-72
2022/08/24 01:14:00;;;;;;;19.85;15.15;;;;;;;17.45;100.00;92903.53;5097727;28;20055;-73
2022/08/24 01:19:29;;;;;;;19.58;13.23;;;;;;;17.51;100.00;92910.28;5054226;28;20079;-73
2022/08/24 01:22:11;;;;;;;18.58;13.88;;;;;;;17.60;100.00;92918.31;5109944;28;20052;-74
2022/08/24 01:24:40;;;;;;;18.13;13.10;;;;;;;17.63;100.00;92918.59;5110900;28;20044;-73
2022/08/24 01:27:09;;;;;;;16.35;11.85;;;;;;;17.56;100.00;92923.28;5110926;28;20059;-73
2022/08/24 01:29:37;;;;;;;16.05;11.57;;;;;;;17.49;100.00;92933.91;5109599;28;20043;-73
2022/08/24 01:32:05;;;;;;;17.65;12.02;;;;;;;17.48;100.00;92928.97;5109773;28;20051;-72
2022/08/24 01:34:32;;;;;;;14.70;11.57;;;;;;;17.46;100.00;92934.41;5110449;28;20052;-72
2022/08/24 01:36:59;;;;;;;15.05;10.93;;;;;;;17.34;100.00;92941.69;5109905;28;20047;-72
2022/08/24 01:39:30;;;;;;;17.00;11.77;;;;;;;17.41;100.00;92947.38;5109898;28;20040;-72
2022/08/24 01:42:00;;;;;;;14.43;11.13;;;;;;;17.35;100.00;92949.22;5109289;28;20510;-73
2022/08/24 01:44:29;;;;;;;16.35;11.82;;;;;;;17.42;100.00;92948.97;5109881;28;20047;-72
2022/08/24 01:46:57;;;;;;;11.55;8.80;;;;;;;17.27;100.00;92943.75;5109368;28;20058;-73
2022/08/24 01:49:26;;;;;;;13.23;10.50;;;;;;;17.28;100.00;92945.31;5109748;28;20047;-72
2022/08/24 01:51:53;;;;;;;14.98;9.73;;;;;;;17.23;100.00;92938.31;5109374;28;20079;-73
2022/08/24 01:54:20;;;;;;;14.18;10.32;;;;;;;17.21;100.00;92954.13;5103905;28;20039;-73
2022/08/24 01:56:47;;;;;;;14.45;10.25;;;;;;;17.17;100.00;92947.88;5106324;28;20055;-73
2022/08/24 01:59:16;;;;;;;13.00;10.07;;;;;;;17.25;100.00;92945.84;5106498;28;20040;-73
2022/08/24 02:01:46;;;;;;;13.18;10.20;;;;;;;17.29;100.00;92944.25;5106350;28;20040;-72
2022/08/24 02:04:13;;;;;;;13.25;9.32;;;;;;;17.33;100.00;92940.91;5106368;28;20403;-72
2022/08/24 02:06:40;;;;;;;11.45;9.05;;;;;;;17.39;100.00;92938.31;5104584;28;20043;-73
2022/08/24 02:09:06;;;;;;;11.48;9.00;;;;;;;17.35;100.00;92933.63;5109248;28;20043;-73
2022/08/24 02:11:33;;;;;;;11.30;8.77;;;;;;;17.39;100.00;92933.91;5109130;28;20502;-73
2022/08/24 02:14:00;;;;;;;15.10;9.93;;;;;;;17.46;100.00;92939.59;5109285;28;20084;-73
2022/08/24 02:16:29;;;;;;;12.00;9.02;;;;;;;17.47;100.00;92945.59;5108742;28;21922;-76
2022/08/24 02:18:56;;;;;;;12.50;8.70;;;;;;;17.38;100.00;92947.91;5108868;28;20050;-76
2022/08/24 02:21:23;;;;;;;11.85;8.75;;;;;;;17.21;100.00;92935.16;5108681;28;20051;-76
2022/08/24 02:23:51;;;;;;;12.48;9.68;;;;;;;17.39;100.00;92959.09;5108955;28;20040;-76
2022/08/24 02:26:18;;;;;;;11.13;8.88;;;;;;;17.31;100.00;92942.22;5108490;28;20387;-76
2022/08/24 02:28:45;;;;;;;11.05;9.05;;;;;;;17.32;100.00;92954.91;5108948;28;20055;-76
2022/08/24 02:31:14;;;;;;;11.00;8.20;;;;;;;17.32;100.00;92956.75;5108715;28;20093;-74
2022/08/24 02:33:42;;;;;;;11.05;8.63;;;;;;;17.28;100.00;92948.69;5111024;28;20130;-74
2022/08/24 02:36:11;;;;;;;10.73;8.82;;;;;;;17.26;100.00;92950.00;5112764;28;20055;-73
2022/08/24 02:38:39;;;;;;;12.55;8.82;;;;;;;17.35;100.00;92964.78;5112296;28;20142;-73
2022/08/24 02:41:06;;;;;;;12.50;8.38;;;;;;;17.29;100.00;92960.63;5112581;28;20085;-73
2022/08/24 02:43:32;;;;;;;11.85;8.38;;;;;;;17.18;100.00;92965.00;5113040;28;20084;-73
2022/08/24 02:45:59;;;;;;;11.60;8.23;;;;;;;17.22;100.00;92965.31;5112849;28;20048;-73
2022/08/24 02:48:26;;;;;;;11.85;7.80;;;;;;;17.21;100.00;92961.13;5113072;28;20143;-74
2022/08/24 02:50:55;;;;;;;12.63;8.98;;;;;;;17.22;100.00;92973.84;5112277;28;20043;-73
2022/08/24 02:53:22;;;;;;;10.80;8.20;;;;;;;17.11;100.00;92972.25;5112607;28;20096;-73
2022/08/24 02:55:49;;;;;;;11.57;8.18;;;;;;;16.94;100.00;92964.69;5112217;28;20047;-73
2022/08/24 02:58:17;;;;;;;9.95;8.07;;;;;;;17.08;100.00;92988.38;5112041;28;20039;-73
2022/08/24 03:00:46;;;;;;;13.23;8.63;;;;;;;17.08;100.00;92988.38;5112295;28;20043;-73
2022/08/24 03:03:13;;;;;;;10.70;8.48;;;;;;;17.13;100.00;92993.53;5112044;28;20134;-73
2022/08/24 03:05:40;;;;;;;10.75;7.60;;;;;;;16.75;100.00;92972.13;5112032;28;20047;-73
2022/08/24 03:08:09;;;;;;;12.15;9.00;;;;;;;16.94;100.00;92993.97;5112279;28;20044;-73
2022/08/24 03:10:35;;;;;;;10.30;7.82;;;;;;;16.97;100.00;92995.28;5111788;28;20089;-73
2022/08/24 03:13:02;;;;;;;12.40;8.00;;;;;;;16.99;100.00;92992.44;5112209;28;20445;-73
2022/08/24 03:15:29;;;;;;;12.43;9.05;;;;;;;16.85;100.00;92979.94;5111779;28;20573;-73
2022/08/24 03:17:56;;;;;;;13.57;9.85;;;;;;;16.98;100.00;92994.25;5111928;28;20126;-73
2022/08/24 03:20:24;;;;;;;14.80;9.32;;;;;;;16.88;100.00;92974.25;5112044;28;20043;-73
2022/08/24 03:22:51;;;;;;;14.75;10.15;;;;;;;16.99;100.00;92995.03;5112023;28;20066;-73
2022/08/24 03:25:23;;;;;;;11.23;8.68;;;;;;;16.82;100.00;92980.47;5111504;28;20051;-72
2022/08/24 03:27:50;;;;;;;11.98;8.98;;;;;;;16.87;100.00;92990.84;5111527;28;20123;-72
2022/08/24 03:30:18;;;;;;;10.98;8.63;;;;;;;16.85;100.00;92986.94;5111739;28;20105;-72
2022/08/24 03:32:44;;;;;;;13.32;9.35;;;;;;;16.89;100.00;92985.41;5111731;28;20047;-73
2022/08/24 03:35:13;;;;;;;13.95;10.07;;;;;;;17.03;100.00;92991.69;5111679;28;20105;-73
2022/08/24 03:37:40;;;;;;;14.50;10.27;;;;;;;17.08;100.00;92986.53;5111696;28;20044;-73
2022/08/24 03:40:09;;;;;;;15.57;10.48;;;;;;;17.08;100.00;92990.97;5111418;28;20491;-73
2022/08/24 03:42:38;;;;;;;25.88;14.75;;;;;;;16.98;100.00;92996.84;5111372;28;20044;-74
2022/08/24 03:45:06;;;;;;;15.55;10.68;;;;;;;16.91;100.00;92997.09;5110993;28;20039;-73
2022/08/24 03:47:33;;;;;;;13.85;9.80;;;;;;;16.93;100.00;92994.22;5111455;28;20050;-73
2022/08/24 03:50:00;;;;;;;12.98;9.60;;;;;;;16.85;100.00;92997.31;5111402;28;20047;-72
2022/08/24 03:52:26;;;;;;;13.30;9.60;;;;;;;16.74;100.00;92988.72;5111437;28;20093;-72
2022/08/24 03:54:53;;;;;;;11.45;8.88;;;;;;;16.77;100.00;92996.78;5111212;28;20092;-72
2022/08/24 03:57:20;;;;;;;11.77;9.07;;;;;;;16.72;100.00;92995.97;5111378;28;20108;-72
2022/08/24 03:59:48;;;;;;;10.73;8.38;;;;;;;16.69;100.00;93000.63;5111196;28;20109;-72
2022/08/24 04:02:15;;;;;;;12.77;9.88;;;;;;;16.66;100.00;92990.75;5111151;28;20043;-72
2022/08/24 04:04:42;;;;;;;13.20;8.98;;;;;;;16.71;100.00;93002.97;5111047;28;20051;-72
2022/08/24 04:07:08;;;;;;;11.18;7.97;;;;;;;16.32;100.00;92948.84;5111076;28;20048;-72
2022/08/24 04:09:35;;;;;;;13.95;9.80;;;;;;;16.69;100.00;93002.44;5110610;28;20503;-72
2022/08/24 04:12:02;;;;;;;11.80;8.90;;;;;;;16.71;100.00;93010.75;5110776;28;20824;-73
2022/08/24 04:14:29;;;;;;;8.90;7.22;;;;;;;16.64;100.00;93007.59;5110963;28;20040;-72
2022/08/24 04:16:57;;;;;;;9.75;7.15;;;;;;;16.58;100.00;93001.63;5110443;28;20096;-73
2022/08/24 04:19:25;;;;;;;10.98;7.60;;;;;;;16.61;100.00;92995.16;5110780;28;20044;-73
2022/08/24 04:21:52;;;;;;;10.82;7.32;;;;;;;16.65;100.00;93003.97;5110622;28;20429;-73
2022/08/24 04:24:19;;;;;;;8.52;7.03;;;;;;;16.67;100.00;93004.53;5110906;28;20035;-73
2022/08/24 04:26:46;;;;;;;9.68;7.25;;;;;;;16.63;100.00;92993.09;5110202;28;20134;-72
2022/08/24 04:29:15;;;;;;;9.25;7.28;;;;;;;16.67;100.00;92994.16;5110244;28;20821;-73
2022/08/24 04:31:43;;;;;;;10.93;6.72;;;;;;;16.71;100.00;93013.34;5110425;28;20079;-73
2022/08/24 04:34:13;;;;;;;12.52;7.72;;;;;;;16.80;100.00;93006.63;5110212;28;20044;-73
2022/08/24 04:36:41;;;;;;;8.40;6.72;;;;;;;16.69;100.00;92987.69;5110398;28;20044;-73
2022/08/24 04:39:07;;;;;;;10.25;7.18;;;;;;;16.89;100.00;93009.53;5110282;28;20036;-73
2022/08/24 04:41:35;;;;;;;8.98;6.45;;;;;;;16.95;100.00;93024.06;5110416;28;20453;-73
2022/08/24 04:44:01;;;;;;;8.50;6.18;;;;;;;16.93;100.00;93009.78;5110502;28;20040;-72
2022/08/24 04:46:29;;;;;;;8.10;6.05;;;;;;;16.91;100.00;93012.66;5110343;28;20048;-73
2022/08/24 04:48:56;;;;;;;12.00;6.93;;;;;;;16.90;100.00;93018.09;5110273;28;20047;-72
2022/08/24 04:51:24;;;;;;;9.70;6.10;;;;;;;16.96;100.00;93017.09;5110145;28;20043;-73
2022/08/24 04:53:51;;;;;;;8.68;6.47;;;;;;;16.97;100.00;93023.81;5110136;28;20066;-73
2022/08/24 04:56:21;;;;;;;10.68;7.75;;;;;;;16.95;100.00;93015.53;5109284;28;20104;-72
2022/08/24 04:58:49;;;;;;;7.90;5.93;;;;;;;17.06;100.00;93016.38;5109733;28;20048;-72
2022/08/24 05:01:21;;;;;;;8.15;6.30;;;;;;;17.15;100.00;93014.84;5110051;28;20406;-72
2022/08/24 05:03:49;;;;;;;8.68;6.05;;;;;;;17.24;100.00;93030.69;5110082;28;20099;-72
2022/08/24 05:06:17;;;;;;;8.95;5.65;;;;;;;17.15;100.00;93001.06;5109597;28;20589;-72
2022/08/24 05:08:46;;;;;;;9.85;6.07;;;;;;;17.39;100.00;93022.16;5109631;28;20495;-73
2022/08/24 05:11:13;;;;;;;8.55;6.45;;;;;;;17.50;100.00;93015.94;5109569;28;20040;-72
2022/08/24 05:13:40;;;;;;;12.77;7.22;;;;;;;17.67;100.00;93017.53;5109662;28;20050;-72
2022/08/24 05:16:10;;;;;;;10.68;6.47;;;;;;;17.60;100.00;93022.22;5109554;28;20096;-73
2022/08/24 05:18:37;;;;;;;10.73;6.15;;;;;;;17.65;100.00;93018.84;5109537;28;20051;-72
2022/08/24 05:21:07;;;;;;;9.90;5.72;;;;;;;17.69;100.00;93015.44;5109794;28;20047;-72
2022/08/24 05:23:34;;;;;;;8.20;5.20;;;;;;;17.49;100.00;93018.81;5109574;28;20041;-72
2022/08/24 05:26:06;;;;;;;5.80;4.30;;;;;;;17.56;100.00;93018.56;5109398;28;20040;-72
2022/08/24 05:28:34;;;;;;;6.47;4.32;;;;;;;17.62;100.00;93015.72;5109613;28;20043;-73
2022/08/24 05:31:08;;;;;;;6.95;4.88;;;;;;;17.66;100.00;93010.00;5109356;28;20074;-72
2022/08/24 05:33:35;;;;;;;6.72;4.28;;;;;;;17.78;100.00;93010.53;5109317;28;20392;-72
2022/08/24 05:36:02;;;;;;;7.53;4.68;;;;;;;17.88;100.00;93010.53;5109201;28;20490;-73
2022/08/24 05:38:30;;;;;;;7.72;4.63;;;;;;;17.98;100.00;93008.97;5109399;28;20051;-73
2022/08/24 05:40:57;;;;;;;7.10;4.35;;;;;;;17.99;100.00;93015.72;5109014;28;20582;-73
2022/08/24 05:43:25;;;;;;;7.03;4.05;;;;;;;17.84;100.00;93012.09;5109223;28;20085;-72
2022/08/24 05:45:52;;;;;;;6.45;4.15;;;;;;;17.91;100.00;93011.81;5109338;28;20407;-72
2022/08/24 05:48:19;;;;;;;6.95;4.25;;;;;;;18.05;100.00;93013.91;5108961;28;20056;-72
2022/08/24 05:50:52;;;;;;;6.95;5.18;;;;;;;18.15;100.00;93009.50;5093691;28;20506;-72
2022/08/24 05:53:19;;;;;;;6.47;4.68;;;;;;;18.40;100.00;93007.94;5087181;28;20044;-73
2022/08/24 05:55:46;;;;;;;7.38;4.15;;;;;;;18.61;100.00;93010.47;5088581;28;20168;-72
2022/08/24 05:58:13;;;;;;;5.47;4.47;;;;;;;18.68;100.00;93005.78;5088424;28;20050;-72
2022/08/24 06:00:44;;;;;;;10.10;4.78;;;;;;;18.80;100.00;93010.66;5089082;28;20056;-72
2022/08/24 06:03:12;;;;;;;5.35;4.10;;;;;;;18.82;100.00;92992.97;5088444;28;20048;-72
2022/08/24 06:05:40;;;;;;;6.90;4.55;;;;;;;19.19;100.00;93004.03;5088637;28;20131;-74
2022/08/24 06:08:07;;;;;;;7.10;4.43;;;;;;;19.29;100.00;93012.84;5091410;28;20422;-73
2022/08/24 06:10:40;;;;;;;5.88;4.07;;;;;;;19.35;100.00;92983.91;5092895;28;20040;-73
2022/08/24 06:13:07;;;;;;;7.40;4.30;;;;;;;19.18;100.00;93014.72;5092535;28;20139;-73
2022/08/24 06:15:34;;;;;;;6.45;4.30;;;;;;;19.05;100.00;93019.47;5092669;28;20047;-72
2022/08/24 06:18:03;;;;;;;6.90;4.05;;;;;;;19.28;100.00;93006.06;5092440;28;20131;-72
2022/08/24 06:20:31;;;;;;;6.07;3.97;;;;;;;19.42;100.00;93011.47;5092643;28;20123;-73
2022/08/24 06:22:58;;;;;;;6.38;3.63;;;;;;;19.32;100.00;93012.31;5092353;28;20044;-73
2022/08/24 06:28:14;;;;;;;5.18;3.30;;;;;;;19.44;100.00;93012.75;5034510;28;20130;-73
2022/08/24 06:30:41;;;;;;;5.25;3.65;;;;;;;19.58;100.00;93014.78;5092608;28;20097;-73
2022/08/24 06:33:10;;;;;;;4.93;3.33;;;;;;;19.70;100.00;93014.41;5100716;28;20075;-74
2022/08/24 06:35:37;;;;;;;4.95;3.70;;;;;;;20.03;100.00;93023.34;5112587;28;20047;-74
2022/08/24 06:38:03;;;;;;;4.10;3.28;;;;;;;20.12;100.00;93022.72;5112706;28;20047;-73
2022/08/24 06:40:31;;;;;;;6.28;3.42;;;;;;;19.96;100.00;93028.09;5112447;28;20044;-74
2022/08/24 06:43:02;;;;;;;5.57;4.05;;;;;;;20.12;100.00;93025.34;5112356;28;20130;-74
2022/08/24 06:45:29;;;;;;;5.25;4.47;;;;;;;19.93;100.00;93025.97;5112351;28;20083;-73
2022/08/24 06:47:56;;;;;;;5.10;3.67;;;;;;;19.63;100.00;93027.75;5112610;28;20118;-73
2022/08/24 06:50:25;;;;;;;5.53;3.65;;;;;;;19.86;100.00;93030.75;5112560;28;20055;-73
2022/08/24 06:52:52;;;;;;;6.72;3.85;;;;;;;19.84;100.00;93002.34;5112412;28;20491;-74
2022/08/24 06:55:18;;;;;;;4.43;3.30;;;;;;;20.21;100.00;93020.31;5112610;28;20495;-74
2022/08/24 06:57:45;;;;;;;5.85;3.92;;;;;;;20.37;100.00;93026.94;5112758;28;20048;-73
2022/08/24 07:00:13;;;;;;;7.95;4.30;;;;;;;20.50;100.00;93027.38;5113091;28;20047;-73
2022/08/24 07:02:41;;;;;;;6.05;3.78;;;;;;;20.59;100.00;93043.19;5112853;28;20430;-73
2022/08/24 07:05:08;;;;;;;6.85;4.32;;;;;;;20.70;100.00;93050.63;5112866;28;20138;-73
2022/08/24 07:07:37;;;;;;;5.45;3.70;;;;;;;20.70;100.00;93048.03;5112554;28;20047;-73
2022/08/24 07:10:05;;;;;;;6.70;4.05;;;;;;;20.64;100.00;93050.97;5098067;28;20117;-73
2022/08/24 07:12:32;;;;;;;5.20;3.70;;;;;;;20.75;100.00;93049.81;5108115;28;20040;-72
2022/08/24 07:14:59;;;;;;;7.57;4.03;;;;;;;20.95;100.00;93051.47;5111877;28;20047;-72
2022/08/24 07:17:25;;;;;;;8.65;3.15;;;;;;;20.54;100.00;93057.84;5112241;28;20047;-73
2022/08/24 07:19:52;;;;;;;5.85;4.00;;;;;;;20.66;100.00;93048.84;5111411;28;20040;-73
2022/08/24 07:22:19;;;;;;;5.82;3.47;;;;;;;20.63;100.00;93058.03;5112283;28;20043;-73
2022/08/24 07:24:47;;;;;;;7.25;3.88;;;;;;;20.24;100.00;93058.88;5112259;28;20043;-73
2022/08/24 07:27:14;;;;;;;7.13;4.43;;;;;;;20.68;100.00;93059.78;5112370;28;20824;-72
2022/08/24 07:29:41;;;;;;;6.35;4.10;;;;;;;20.71;100.00;93043.59;5112139;28;20047;-73
2022/08/24 07:32:09;;;;;;;11.88;4.78;;;;;;;21.07;100.00;93056.28;5112239;28;20043;-73
2022/08/24 07:34:36;;;;;;;6.57;4.07;;;;;;;20.66;100.00;93054.88;5111563;28;20126;-73
2022/08/24 07:37:04;;;;;;;5.85;3.25;;;;;;;20.70;100.00;93063.69;5111995;28;20095;-72
2022/08/24 07:39:31;;;;;;;5.35;3.58;;;;;;;20.91;100.00;93062.72;5111739;28;20043;-72
2022/08/24 07:42:00;;;;;;;6.95;4.00;;;;;;;20.79;100.00;93050.03;5111509;28;20051;-72
2022/08/24 07:44:26;;;;;;;6.95;4.25;;;;;;;21.03;100.00;93052.69;5111642;28;20061;-73
2022/08/24 07:46:53;;;;;;;7.78;3.83;;;;;;;20.96;100.00;93070.50;5111611;28;20051;-72
2022/08/24 07:49:20;;;;;;;5.05;3.78;;;;;;;20.88;100.00;93060.69;5111701;28;20048;-73
2022/08/24 07:51:47;;;;;;;5.72;3.38;;;;;;;20.68;100.00;93047.53;5111207;28;20116;-73
2022/08/24 07:54:14;;;;;;;6.30;4.07;;;;;;;20.58;100.00;93052.06;5111281;28;20051;-72
2022/08/24 07:56:42;;;;;;;7.88;4.63;;;;;;;20.74;100.00;93048.25;5111657;28;21029;-73
2022/08/24 07:59:10;;;;;;;5.65;4.13;;;;;;;21.04;100.00;93053.44;5111347;28;20044;-72
2022/08/24 08:01:37;;;;;;;6.15;3.50;;;;;;;20.91;100.00;93057.50;5111108;28;20475;-73
2022/08/24 08:04:05;;;;;;;7.10;4.18;;;;;;;21.02;100.00;93045.88;5111668;28;20054;-73
2022/08/24 08:06:31;;;;;;;5.78;4.10;;;;;;;21.16;100.00;93040.00;5111500;28;20040;-72
2022/08/24 08:08:58;;;;;;;6.45;3.63;;;;;;;21.06;100.00;93043.50;5111292;28;20055;-73
2022/08/24 08:11:25;;;;;;;5.05;3.60;;;;;;;21.12;100.00;93041.59;5111476;28;20070;-73
2022/08/24 08:13:53;;;;;;;6.45;4.00;;;;;;;21.23;100.00;93024.75;5111423;28;20388;-72
2022/08/24 08:16:21;;;;;;;5.78;3.95;;;;;;;21.27;100.00;93038.03;5111383;28;20047;-73
2022/08/24 08:18:48;;;;;;;8.20;4.05;;;;;;;21.48;100.00;93035.94;5111203;28;20051;-73
2022/08/24 08:26:41;;;;;;;5.20;3.33;;;;;;;21.94;100.00;93025.91;5110719;28;20058;-72
2022/08/24 08:29:09;;;;;;;4.22;3.25;;;;;;;21.74;100.00;93032.97;5111021;28;20048;-73
2022/08/24 08:31:37;;;;;;;5.50;3.47;;;;;;;21.33;100.00;93002.94;5097279;28;20040;-72
2022/08/24 08:34:05;;;;;;;8.45;3.83;;;;;;;21.42;100.00;93026.63;5109496;28;20097;-73
2022/08/24 08:36:32;;;;;;;6.15;4.03;;;;;;;21.74;100.00;93023.31;5110876;28;20104;-73
2022/08/24 08:39:00;;;;;;;6.28;3.70;;;;;;;22.00;100.00;93030.75;5110726;28;20054;-72
2022/08/24 08:41:58;;;;;;;5.03;2.90;;;;;;;21.69;100.00;93033.81;5110602;28;20089;-74
2022/08/24 08:44:38;;;;;;;4.75;3.33;;;;;;;21.74;100.00;93019.91;5110925;28;20054;-73
2022/08/24 08:47:22;;;;;;;4.85;2.95;;;;;;;21.50;100.00;93012.91;5105233;28;20047;-73
2022/08/24 08:50:06;;;;;;;8.77;3.95;;;;;;;21.96;100.00;93029.00;5093363;28;20440;-72
2022/08/24 08:53:04;;;;;;;6.38;3.80;;;;;;;21.63;100.00;93032.34;5103628;28;20050;-73
2022/08/24 08:55:35;;;;;;;7.63;4.03;;;;;;;21.54;100.00;93041.84;5100657;28;20043;-74
2022/08/24 08:58:18;;;;;;;7.30;4.03;;;;;;;21.74;100.00;93043.44;5110188;28;20056;-74
2022/08/24 09:01:01;;;;;;;8.90;4.32;;;;;;;21.93;100.00;93050.50;5110428;28;20463;-74
2022/08/24 09:03:43;;;;;;;4.97;4.00;;;;;;;21.71;100.00;93046.63;5110013;28;20552;-74
2022/08/24 09:06:31;;;;;;;5.03;3.00;;;;;;;21.72;100.00;93046.34;5110287;28;20048;-74
2022/08/24 09:09:12;;;;;;;8.65;5.60;;;;;;;21.84;100.00;93047.75;5109895;28;20048;-73
2022/08/24 09:11:50;;;;;;;20.13;8.90;;;;;;;22.11;100.00;93048.91;5104724;28;20093;-73
2022/08/24 09:14:44;;;;;;;8.15;4.40;;;;;;;22.18;100.00;93046.72;5097407;28;20039;-73
2022/08/24 09:17:28;;;;;;;5.13;3.85;;;;;;;22.18;100.00;93044.09;5109815;28;20055;-74
2022/08/24 09:20:08;;;;;;;9.40;4.55;;;;;;;22.47;100.00;93050.94;5106201;28;20491;-73
2022/08/24 09:22:39;;;;;;;7.07;4.15;;;;;;;22.55;100.00;93039.84;5098880;28;20491;-74
2022/08/24 09:25:19;;;;;;;5.05;3.53;;;;;;;22.92;100.00;93037.34;5109689;28;20051;-74
2022/08/24 09:28:00;;;;;;;7.35;3.63;;;;;;;23.07;100.00;93028.44;5101111;28;20499;-74
2022/08/24 09:30:38;;;;;;;6.40;3.15;;;;;;;23.21;100.00;93030.25;5109930;28;20047;-73
2022/08/24 09:33:08;;;;;;;6.60;3.45;;;;;;;23.71;99.99;93039.19;5109904;28;20043;-73
2022/08/24 09:35:59;;;;;;;7.70;4.22;;;;;;;23.99;98.02;93037.25;5106724;28;20048;-73
2022/08/24 09:38:47;;;;;;;5.13;3.78;;;;;;;23.77;95.19;93027.53;5097782;28;20054;-74
2022/08/24 09:41:45;;;;;;;6.13;3.63;;;;;;;23.52;95.07;93031.47;5108564;28;20044;-74
2022/08/24 09:44:44;;;;;;;21.33;9.13;;;;;;;23.40;96.47;93024.13;5108949;28;20047;-74
2022/08/24 09:47:51;;;;;;;9.60;5.30;;;;;;;23.51;97.73;93022.06;5092737;28;20485;-74
2022/08/24 09:50:49;;;;;;;9.80;4.95;;;;;;;23.59;96.49;93016.13;5098304;28;20055;-75
2022/08/24 09:53:47;;;;;;;13.07;5.85;;;;;;;23.73;95.37;93001.13;5109151;28;20039;-75
2022/08/24 09:56:40;;;;;;;7.43;3.95;;;;;;;24.00;93.70;93002.09;5109176;28;20566;-75
2022/08/24 09:59:22;;;;;;;6.47;3.85;;;;;;;23.94;92.42;92989.38;5108521;28;20051;-74
2022/08/24 10:02:07;;;;;;;9.57;4.20;;;;;;;23.96;94.11;92995.09;5109539;28;20548;-74
2022/08/24 10:04:44;;;;;;;7.65;4.65;;;;;;;23.98;92.05;92988.47;5109351;28;20043;-73
2022/08/24 10:07:19;;;;;;;7.43;4.05;;;;;;;24.15;92.17;92989.69;5106352;28;20063;-75
2022/08/24 10:10:04;;;;;;;6.15;3.70;;;;;;;24.71;90.79;92978.81;5094193;28;20059;-75
2022/08/24 10:12:42;;;;;;;5.97;3.60;;;;;;;25.06;88.10;92981.56;5109489;28;20050;-75
2022/08/24 10:15:14;;;;;;;6.05;3.63;;;;;;;25.24;84.61;92980.81;5108504;28;20058;-75
2022/08/24 10:17:50;;;;;;;8.32;4.13;;;;;;;25.41;83.14;92977.44;5108831;28;20055;-75
2022/08/24 10:20:23;;;;;;;3.72;2.92;;;;;;;25.41;81.16;92985.31;5108840;28;20092;-75
2022/08/24 10:23:10;;;;;;;4.93;3.00;;;;;;;25.53;78.92;92988.09;5109114;28;20076;-75
2022/08/24 10:25:40;;;;;;;7.78;4.10;;;;;;;25.57;82.07;92973.28;5108983;28;20384;-75
2022/08/24 10:28:32;;;;;;;10.60;3.72;;;;;;;25.62;81.26;92969.72;5109368;28;20445;-75
2022/08/24 10:31:04;;;;;;;4.93;3.10;;;;;;;25.74;79.82;92974.38;5106093;28;20395;-75
2022/08/24 10:33:35;;;;;;;8.00;3.67;;;;;;;25.33;76.85;92969.22;5109315;28;20051;-75
2022/08/24 10:36:20;;;;;;;6.38;3.85;;;;;;;25.07;77.35;92980.47;5109235;28;20484;-76
2022/08/24 10:42:02;;;;;;;6.38;4.28;;;;;;;24.89;79.78;92971.00;5100195;28;20059;-75
2022/08/24 10:44:47;;;;;;;4.40;3.25;;;;;;;24.99;78.84;92973.34;5109354;28;20044;-75
2022/08/24 10:47:22;;;;;;;6.70;3.47;;;;;;;25.03;78.08;92990.06;5109061;28;20101;-74
2022/08/24 10:50:21;;;;;;;6.03;4.05;;;;;;;25.42;79.86;92976.34;5101618;28;20083;-75
2022/08/24 10:56:08;;;;;;;6.65;3.28;;;;;;;26.02;80.04;92966.13;5094399;28;20055;-75
2022/08/24 10:58:58;;;;;;;4.63;3.00;;;;;;;25.79;76.98;92979.47;5105796;28;20444;-76
2022/08/24 11:01:29;;;;;;;5.22;3.13;;;;;;;25.86;79.21;92971.09;5104535;28;20510;-75
2022/08/24 11:04:00;;;;;;;5.30;4.03;;;;;;;25.97;76.57;92972.31;5103566;28;20082;-75
2022/08/24 11:06:31;;;;;;;6.10;3.38;;;;;;;26.10;76.98;92965.31;5103506;28;20046;-75
2022/08/24 11:09:02;;;;;;;5.50;3.92;;;;;;;26.35;77.73;92972.72;5101042;28;20400;-76
2022/08/24 11:11:34;;;;;;;5.43;3.65;;;;;;;26.81;77.68;92950.03;5103107;28;20084;-76
2022/08/24 11:14:04;;;;;;;8.30;4.25;;;;;;;26.86;76.55;92959.66;5107750;28;20515;-75
2022/08/24 11:16:35;;;;;;;7.35;3.20;;;;;;;26.14;75.68;92962.81;5113094;28;20040;-76
2022/08/24 11:19:03;;;;;;;5.93;3.58;;;;;;;26.06;80.48;92956.50;5109644;28;20051;-75
2022/08/24 11:21:46;;;;;;;6.90;4.10;;;;;;;25.86;76.71;92953.44;5103977;28;20055;-75
2022/08/24 11:24:26;;;;;;;7.03;3.70;;;;;;;25.72;79.18;92950.22;5102155;28;20044;-74
2022/08/24 11:26:57;;;;;;;8.45;3.50;;;;;;;25.67;79.70;92943.25;5099676;28;20515;-75
2022/08/24 11:29:30;;;;;;;7.78;4.00;;;;;;;25.82;81.33;92939.38;5112334;28;20055;-74
2022/08/24 11:31:57;;;;;;;5.90;3.95;;;;;;;25.82;78.87;92951.75;5110213;28;20043;-75
2022/08/24 11:34:34;;;;;;;8.10;4.38;;;;;;;25.49;79.43;92959.03;5100770;28;20060;-75
2022/08/24 11:37:01;;;;;;;8.48;3.97;;;;;;;25.48;78.57;92944.34;5100780;28;20056;-75
2022/08/24 11:39:34;;;;;;;6.18;3.50;;;;;;;25.80;79.62;92938.91;5101352;28;20449;-74
2022/08/24 11:42:15;;;;;;;8.07;4.53;;;;;;;25.88;77.32;92951.28;5102135;28;20142;-75
2022/08/24 11:44:49;;;;;;;7.35;4.00;;;;;;;25.73;77.58;92957.78;5093652;28;20488;-75
2022/08/24 11:48:07;;;;;;;7.22;4.05;;;;;;;25.99;79.09;92945.69;5111620;28;20050;-75
2022/08/24 11:50:40;;;;;;;7.80;3.95;;;;;;;25.81;80.18;92943.09;5088708;28;20048;-74
2022/08/24 11:53:13;;;;;;;5.25;3.75;;;;;;;25.89;75.81;92933.63;5088719;28;20119;-75
2022/08/24 11:55:47;;;;;;;7.32;3.72;;;;;;;25.36;76.79;92931.00;5103756;28;20043;-74
2022/08/24 11:58:24;;;;;;;7.15;4.00;;;;;;;25.84;77.44;92944.31;5111046;28;20619;-74